createdAt,value
2017-12-29T00:01:48.994Z,99479.12
2017-12-29T00:04:16.396Z,99486.09
2017-12-29T00:06:43.782Z,99495.38
2017-12-29T00:09:11.174Z,99493.91
2017-12-29T00:11:38.578Z,99502.52
2017-12-29T00:14:06.780Z,99499.00
2017-12-29T00:16:34.163Z,99498.29
2017-12-29T00:19:01.562Z,99505.74
2017-12-29T00:21:29.050Z,99499.88
2017-12-29T00:23:56.458Z,99504.22
2017-12-29T00:26:23.846Z,99506.16
2017-12-29T00:28:51.320Z,99511.59
2017-12-29T00:31:18.702Z,99514.35
2017-12-29T00:33:46.099Z,99525.50
2017-12-29T00:36:13.482Z,99523.28
2017-12-29T00:38:40.940Z,99522.11
2017-12-29T00:41:08.362Z,99532.19
2017-12-29T00:43:35.762Z,99530.59
2017-12-29T00:46:03.170Z,99527.98
2017-12-29T00:48:30.558Z,99530.06
2017-12-29T00:50:57.941Z,99528.20
2017-12-29T00:53:25.334Z,99538.59
2017-12-29T00:55:52.720Z,99529.74
2017-12-29T00:58:20.130Z,99532.53
2017-12-29T01:00:47.526Z,99536.78
2017-12-29T01:03:14.913Z,99537.78
2017-12-29T01:05:42.314Z,99541.05
2017-12-29T01:08:09.698Z,99540.09
2017-12-29T01:10:37.095Z,99549.67
2017-12-29T01:13:04.510Z,99550.27
2017-12-29T01:15:31.921Z,99547.16
2017-12-29T01:17:59.307Z,99551.80
2017-12-29T01:20:26.692Z,99554.34
2017-12-29T01:22:54.086Z,99553.59
2017-12-29T01:25:21.479Z,99559.89
2017-12-29T01:27:48.857Z,99555.09
2017-12-29T01:30:16.249Z,99560.64
2017-12-29T01:32:43.640Z,99566.66
2017-12-29T01:35:11.036Z,99561.76
2017-12-29T01:37:38.418Z,99556.44
2017-12-29T01:40:05.819Z,99562.53
2017-12-29T01:42:33.217Z,99565.88
2017-12-29T01:45:00.598Z,99566.89
2017-12-29T01:47:27.983Z,99559.66
2017-12-29T01:49:55.387Z,99564.38
2017-12-29T01:52:22.767Z,99560.03
2017-12-29T01:54:50.151Z,99554.59
2017-12-29T01:57:17.547Z,99567.30
2017-12-29T01:59:44.926Z,99563.51
2017-12-29T02:02:12.319Z,99558.98
2017-12-29T02:04:39.720Z,99561.73
2017-12-29T02:07:07.110Z,99567.00
2017-12-29T02:09:34.503Z,99562.38
2017-12-29T02:12:01.905Z,99571.12
2017-12-29T02:14:29.291Z,99575.05
2017-12-29T02:16:56.691Z,99578.17
2017-12-29T02:19:24.073Z,99576.02
2017-12-29T02:21:51.478Z,99573.70
2017-12-29T02:24:18.862Z,99571.70
2017-12-29T02:26:46.267Z,99581.53
2017-12-29T02:29:13.659Z,99582.67
2017-12-29T02:31:41.162Z,99581.42
2017-12-29T02:34:08.559Z,99586.08
2017-12-29T02:36:35.939Z,99593.76
2017-12-29T02:39:03.335Z,99587.30
2017-12-29T02:41:30.722Z,99589.87
2017-12-29T02:43:58.111Z,99593.39
2017-12-29T02:46:25.551Z,99592.92
2017-12-29T02:48:52.932Z,99593.11
2017-12-29T02:51:20.402Z,99589.73
2017-12-29T02:53:47.799Z,99585.55
2017-12-29T02:56:15.184Z,99593.57
2017-12-29T02:58:42.579Z,99595.34
2017-12-29T03:01:09.967Z,99606.27
2017-12-29T03:03:38.359Z,99603.78
2017-12-29T03:06:05.737Z,99600.53
2017-12-29T03:08:33.138Z,99605.84
2017-12-29T03:11:00.519Z,99602.44
2017-12-29T03:13:27.918Z,99607.14
2017-12-29T03:15:55.326Z,99613.17
2017-12-29T03:18:22.730Z,99610.64
2017-12-29T03:20:50.133Z,99607.47
2017-12-29T03:23:17.524Z,99609.55
2017-12-29T03:25:44.907Z,99612.92
2017-12-29T03:28:12.297Z,99618.11
2017-12-29T03:30:39.686Z,99611.27
2017-12-29T03:33:07.071Z,99609.52
2017-12-29T03:35:34.486Z,99606.79
2017-12-29T03:38:01.882Z,99615.23
2017-12-29T03:40:29.278Z,99606.58
2017-12-29T03:42:56.673Z,99617.55
2017-12-29T03:45:24.061Z,99609.29
2017-12-29T03:47:51.466Z,99617.77
2017-12-29T03:50:18.874Z,99620.59
2017-12-29T03:52:46.270Z,99618.43
2017-12-29T03:55:13.658Z,99619.12
2017-12-29T03:57:41.082Z,99617.77
2017-12-29T04:00:08.466Z,99617.95
2017-12-29T04:02:35.918Z,99620.50
2017-12-29T04:05:03.310Z,99613.19
2017-12-29T04:07:30.709Z,99614.45
2017-12-29T04:09:58.107Z,99615.55
2017-12-29T04:12:25.486Z,99612.55
2017-12-29T04:14:52.904Z,99613.98
2017-12-29T04:17:20.277Z,99620.18
2017-12-29T04:19:47.692Z,99621.75
2017-12-29T04:22:15.074Z,99620.95
2017-12-29T04:24:42.478Z,99621.77
2017-12-29T04:27:09.853Z,99622.56
2017-12-29T04:29:37.243Z,99625.78
2017-12-29T04:32:04.651Z,99629.89
2017-12-29T04:34:32.045Z,99619.76
2017-12-29T04:36:59.425Z,99626.44
2017-12-29T04:39:26.826Z,99625.80
2017-12-29T04:41:54.218Z,99633.90
2017-12-29T04:44:21.610Z,99637.86
2017-12-29T04:46:49.000Z,99635.27
2017-12-29T04:49:16.386Z,99646.07
2017-12-29T04:51:43.774Z,99641.24
2017-12-29T04:54:11.169Z,99638.04
2017-12-29T04:56:38.558Z,99647.59
2017-12-29T04:59:05.954Z,99643.87
2017-12-29T05:01:33.347Z,99642.76
2017-12-29T05:04:00.738Z,99640.67
2017-12-29T05:06:28.150Z,99636.61
2017-12-29T05:08:55.553Z,99643.33
2017-12-29T05:11:22.982Z,99641.34
2017-12-29T05:13:50.419Z,99646.80
2017-12-29T05:16:17.867Z,99646.07
2017-12-29T05:18:45.250Z,99640.92
2017-12-29T05:21:12.667Z,99645.23
2017-12-29T05:23:40.073Z,99640.94
2017-12-29T05:26:07.466Z,99649.77
2017-12-29T05:28:34.873Z,99645.23
2017-12-29T05:31:02.263Z,99651.41
2017-12-29T05:33:29.653Z,99649.05
2017-12-29T05:35:57.046Z,99655.66
2017-12-29T05:38:24.462Z,99657.44
2017-12-29T05:40:51.855Z,99659.81
2017-12-29T05:43:19.244Z,99662.75
2017-12-29T05:45:46.640Z,99664.41
2017-12-29T05:48:14.049Z,99660.08
2017-12-29T05:50:41.435Z,99669.73
2017-12-29T05:53:08.817Z,99663.59
2017-12-29T05:55:36.223Z,99665.16
2017-12-29T05:58:03.608Z,99668.54
2017-12-29T06:00:31.006Z,99669.27
2017-12-29T06:02:58.399Z,99673.70
2017-12-29T06:05:25.865Z,99669.49
2017-12-29T06:07:53.271Z,99679.39
2017-12-29T06:10:20.665Z,99680.61
2017-12-29T06:12:48.058Z,99681.76
2017-12-29T06:15:15.625Z,99691.09
2017-12-29T06:17:43.015Z,99695.39
2017-12-29T06:20:10.400Z,99694.28
2017-12-29T06:22:37.795Z,99696.37
2017-12-29T06:25:05.184Z,99697.20
2017-12-29T06:27:32.575Z,99698.91
2017-12-29T06:29:59.970Z,99706.67
2017-12-29T06:32:27.479Z,99699.13
2017-12-29T06:34:54.858Z,99707.95
2017-12-29T06:37:22.254Z,99708.66
2017-12-29T06:39:49.742Z,99717.95
2017-12-29T06:42:17.134Z,99721.05
2017-12-29T06:44:44.543Z,99707.69
2017-12-29T06:47:11.946Z,99725.28
2017-12-29T06:49:39.335Z,99729.67
2017-12-29T06:52:06.733Z,99735.58
2017-12-29T06:54:34.123Z,99739.07
2017-12-29T06:57:01.516Z,99757.11
2017-12-29T06:59:28.907Z,99757.02
2017-12-29T07:01:56.307Z,99764.50
2017-12-29T07:04:23.702Z,99776.23
2017-12-29T07:06:51.095Z,99784.14
2017-12-29T07:09:18.482Z,99777.43
2017-12-29T07:11:45.881Z,99777.72
2017-12-29T07:14:13.273Z,99785.70
2017-12-29T07:16:40.673Z,99789.44
2017-12-29T07:19:08.058Z,99789.38
2017-12-29T07:21:35.459Z,99798.03
2017-12-29T07:24:02.844Z,99795.39
2017-12-29T07:26:30.230Z,99804.95
2017-12-29T07:28:57.613Z,99803.18
2017-12-29T07:31:25.014Z,99805.33
2017-12-29T07:33:52.416Z,99808.03
2017-12-29T07:36:19.830Z,99811.46
2017-12-29T07:38:47.226Z,99807.40
2017-12-29T07:41:14.630Z,99807.40
2017-12-29T07:43:42.014Z,99820.58
2017-12-29T07:46:09.408Z,99822.91
2017-12-29T07:48:36.799Z,99818.53
2017-12-29T07:51:04.194Z,99822.04
2017-12-29T07:53:31.586Z,99824.59
2017-12-29T07:55:59.003Z,99824.77
2017-12-29T07:58:26.416Z,99821.17
2017-12-29T08:00:53.810Z,99821.71
2017-12-29T08:03:21.203Z,99828.61
2017-12-29T08:05:48.887Z,99804.26
2017-12-29T08:08:16.274Z,99834.78
2017-12-29T08:10:43.674Z,99843.02
2017-12-29T08:13:11.062Z,99831.94
2017-12-29T08:15:38.737Z,99845.13
2017-12-29T08:18:06.384Z,99847.27
2017-12-29T08:20:33.783Z,99841.31
2017-12-29T08:23:01.166Z,99844.61
2017-12-29T08:25:28.551Z,99842.89
2017-12-29T08:27:55.995Z,99833.46
2017-12-29T08:30:23.386Z,99839.74
2017-12-29T08:32:50.787Z,99834.72
2017-12-29T08:35:18.172Z,99832.83
2017-12-29T08:37:45.566Z,99830.02
2017-12-29T08:40:12.961Z,99831.52
2017-12-29T08:42:40.350Z,99833.70
2017-12-29T08:45:07.743Z,99843.86
2017-12-29T08:47:35.147Z,99833.47
2017-12-29T08:50:02.534Z,99834.28
2017-12-29T08:52:29.926Z,99839.46
2017-12-29T08:54:57.320Z,99831.70
2017-12-29T08:57:24.710Z,99838.34
2017-12-29T08:59:52.122Z,99839.63
2017-12-29T09:02:19.509Z,99847.52
2017-12-29T09:04:46.910Z,99844.29
2017-12-29T09:07:14.306Z,99847.62
2017-12-29T09:09:41.690Z,99837.83
2017-12-29T09:12:09.090Z,99836.66
2017-12-29T09:14:36.480Z,99837.77
2017-12-29T09:17:03.890Z,99833.47
2017-12-29T09:19:31.289Z,99841.80
2017-12-29T09:21:58.678Z,99839.98
2017-12-29T09:24:26.069Z,99840.83
2017-12-29T09:26:53.462Z,99833.64
2017-12-29T09:29:20.862Z,99829.64
2017-12-29T09:31:48.250Z,99842.69
2017-12-29T09:34:15.642Z,99833.30
2017-12-29T09:36:43.038Z,99840.28
2017-12-29T09:39:10.430Z,99834.94
2017-12-29T09:41:37.818Z,99828.13
2017-12-29T09:44:05.221Z,99831.19
2017-12-29T09:46:32.603Z,99828.30
2017-12-29T09:49:00.003Z,99828.02
2017-12-29T09:51:27.386Z,99824.30
2017-12-29T09:53:54.778Z,99824.44
2017-12-29T09:56:22.179Z,99816.36
2017-12-29T09:58:49.594Z,99804.96
2017-12-29T10:01:16.981Z,99811.52
2017-12-29T10:03:44.364Z,99797.25
2017-12-29T10:06:11.750Z,99795.42
2017-12-29T10:08:39.154Z,99790.41
2017-12-29T10:11:06.550Z,99788.52
2017-12-29T10:13:33.933Z,99795.02
2017-12-29T10:16:01.390Z,99791.71
2017-12-29T10:18:28.787Z,99791.03
2017-12-29T10:20:56.183Z,99781.63
2017-12-29T10:23:23.578Z,99784.20
2017-12-29T10:25:51.002Z,99781.94
2017-12-29T10:28:18.394Z,99773.52
2017-12-29T10:30:45.822Z,99772.45
2017-12-29T10:33:13.229Z,99763.72
2017-12-29T10:35:40.610Z,99757.69
2017-12-29T10:38:08.002Z,99764.75
2017-12-29T10:40:35.399Z,99759.97
2017-12-29T10:43:02.789Z,99761.56
2017-12-29T10:45:30.167Z,99759.50
2017-12-29T10:47:57.564Z,99752.77
2017-12-29T10:50:24.956Z,99757.41
2017-12-29T10:52:52.331Z,99752.14
2017-12-29T10:55:19.723Z,99757.50
2017-12-29T10:57:47.131Z,99762.88
2017-12-29T11:00:14.518Z,99772.14
2017-12-29T11:02:41.905Z,99761.20
2017-12-29T11:05:09.299Z,99765.44
2017-12-29T11:07:36.686Z,99762.33
2017-12-29T11:10:04.082Z,99762.75
2017-12-29T11:12:31.476Z,99771.86
2017-12-29T11:14:58.884Z,99767.34
2017-12-29T11:17:26.266Z,99764.23
2017-12-29T11:19:53.659Z,99760.17
2017-12-29T11:22:21.045Z,99751.05
2017-12-29T11:24:48.458Z,99749.06
2017-12-29T11:27:15.873Z,99744.08
2017-12-29T11:29:43.271Z,99744.55
2017-12-29T11:32:10.667Z,99740.42
2017-12-29T11:34:38.055Z,99748.13
2017-12-29T11:37:05.458Z,99746.14
2017-12-29T11:39:32.859Z,99736.22
2017-12-29T11:42:00.596Z,99741.16
2017-12-29T11:44:28.022Z,99744.80
2017-12-29T11:46:55.456Z,99728.84
2017-12-29T11:49:22.842Z,99729.32
2017-12-29T11:51:50.222Z,99729.14
2017-12-29T11:54:17.619Z,99726.13
2017-12-29T11:56:44.990Z,99712.92
2017-12-29T11:59:12.378Z,99717.80
2017-12-29T12:01:39.779Z,99706.80
2017-12-29T12:04:07.170Z,99709.98
2017-12-29T12:06:34.594Z,99706.86
2017-12-29T12:09:01.990Z,99699.59
2017-12-29T12:11:29.388Z,99688.67
2017-12-29T12:13:56.817Z,99684.00
2017-12-29T12:16:24.200Z,99686.05
2017-12-29T12:18:51.588Z,99673.44
2017-12-29T12:21:19.018Z,99672.52
2017-12-29T12:23:46.377Z,99670.69
2017-12-29T12:26:13.778Z,99659.31
2017-12-29T12:28:41.162Z,99661.91
2017-12-29T12:31:08.545Z,99662.32
2017-12-29T12:33:35.992Z,99663.30
2017-12-29T12:36:03.371Z,99656.06
2017-12-29T12:38:30.749Z,99651.52
2017-12-29T12:40:58.253Z,99650.02
2017-12-29T12:43:25.724Z,99653.53
2017-12-29T12:45:53.117Z,99647.19
2017-12-29T12:48:20.502Z,99641.64
2017-12-29T12:50:47.979Z,99647.95
2017-12-29T12:53:15.361Z,99650.44
2017-12-29T12:55:42.748Z,99639.50
2017-12-29T12:58:10.138Z,99635.45
2017-12-29T13:00:37.526Z,99641.22
2017-12-29T13:03:04.914Z,99634.18
2017-12-29T13:05:32.302Z,99628.02
2017-12-29T13:07:59.681Z,99626.46
2017-12-29T13:10:27.079Z,99617.13
2017-12-29T13:12:54.453Z,99612.17
2017-12-29T13:15:21.847Z,99611.83
2017-12-29T13:17:49.230Z,99608.62
2017-12-29T13:20:16.615Z,99610.80
2017-12-29T13:22:43.994Z,99598.69
2017-12-29T13:25:11.401Z,99595.34
2017-12-29T13:27:38.771Z,99589.37
2017-12-29T13:30:06.158Z,99593.38
2017-12-29T13:32:33.547Z,99599.33
2017-12-29T13:35:00.930Z,99591.98
2017-12-29T13:37:28.311Z,99599.73
2017-12-29T13:39:55.715Z,99596.27
2017-12-29T13:42:23.098Z,99586.34
2017-12-29T13:44:50.491Z,99585.45
2017-12-29T13:47:17.870Z,99586.46
2017-12-29T13:49:45.299Z,99585.34
2017-12-29T13:52:12.674Z,99578.06
2017-12-29T13:54:40.078Z,99575.61
2017-12-29T13:57:07.454Z,99574.74
2017-12-29T13:59:34.842Z,99584.52
2017-12-29T14:02:02.241Z,99578.14
2017-12-29T14:04:29.751Z,99577.95
2017-12-29T14:06:57.140Z,99564.50
2017-12-29T14:09:24.530Z,99557.26
2017-12-29T14:11:51.906Z,99566.70
2017-12-29T14:14:19.296Z,99561.55
2017-12-29T14:16:46.677Z,99559.75
2017-12-29T14:19:14.062Z,99553.62
2017-12-29T14:21:41.509Z,99547.81
2017-12-29T14:24:08.890Z,99537.65
2017-12-29T14:26:36.323Z,99532.64
2017-12-29T14:29:03.782Z,99537.02
2017-12-29T14:31:31.178Z,99529.42
2017-12-29T14:33:58.582Z,99532.52
2017-12-29T14:36:25.970Z,99528.88
2017-12-29T14:38:53.354Z,99517.36
2017-12-29T14:41:20.746Z,99514.52
2017-12-29T14:43:48.134Z,99512.06
2017-12-29T14:46:15.528Z,99519.15
2017-12-29T14:48:42.902Z,99506.61
2017-12-29T14:51:10.294Z,99503.53
2017-12-29T14:53:37.667Z,99494.52
2017-12-29T14:56:05.072Z,99499.14
2017-12-29T14:58:32.471Z,99491.58
2017-12-29T15:00:59.858Z,99485.48
2017-12-29T15:03:27.241Z,99479.12
2017-12-29T15:05:54.643Z,99480.42
2017-12-29T15:08:22.027Z,99481.60
2017-12-29T15:10:49.412Z,99475.70
2017-12-29T15:13:16.947Z,99471.80
2017-12-29T15:15:44.374Z,99465.16
2017-12-29T15:18:11.754Z,99464.47
2017-12-29T15:20:39.810Z,99453.65
2017-12-29T15:23:07.194Z,99451.16
2017-12-29T15:25:34.673Z,99449.80
2017-12-29T15:28:02.054Z,99441.35
2017-12-29T15:30:29.443Z,99438.44
2017-12-29T15:32:56.827Z,99441.67
2017-12-29T15:35:24.206Z,99433.46
2017-12-29T15:37:51.585Z,99432.20
2017-12-29T15:40:18.968Z,99427.03
2017-12-29T15:42:46.355Z,99429.31
2017-12-29T15:45:13.752Z,99422.61
2017-12-29T15:47:41.134Z,99426.41
2017-12-29T15:50:08.546Z,99424.27
2017-12-29T15:52:35.935Z,99401.95
2017-12-29T15:55:03.328Z,99404.02
2017-12-29T15:57:30.793Z,99399.39
2017-12-29T15:59:58.245Z,99397.97
2017-12-29T16:02:26.538Z,99398.02
2017-12-29T16:04:53.931Z,99388.77
2017-12-29T16:07:21.323Z,99380.46
2017-12-29T16:09:48.726Z,99383.41
2017-12-29T16:12:16.117Z,99382.66
2017-12-29T16:14:43.513Z,99378.50
2017-12-29T16:17:10.886Z,99378.74
2017-12-29T16:19:38.263Z,99379.28
2017-12-29T16:22:05.730Z,99365.48
2017-12-29T16:24:33.111Z,99363.20
2017-12-29T16:27:00.498Z,99359.97
2017-12-29T16:29:27.885Z,99373.15
2017-12-29T16:31:55.271Z,99356.02
2017-12-29T16:34:22.648Z,99366.05
2017-12-29T16:36:50.034Z,99366.91
2017-12-29T16:39:17.410Z,99364.38
2017-12-29T16:41:44.797Z,99359.57
2017-12-29T16:44:12.186Z,99359.45
2017-12-29T16:46:39.582Z,99342.60
2017-12-29T16:49:06.975Z,99332.13
2017-12-29T16:51:34.370Z,99339.05
2017-12-29T16:54:01.758Z,99332.39
2017-12-29T16:56:29.143Z,99339.92
2017-12-29T16:58:56.536Z,99337.98
2017-12-29T17:01:23.917Z,99336.95
2017-12-29T17:03:51.343Z,99339.63
2017-12-29T17:06:18.689Z,99346.09
2017-12-29T17:08:46.078Z,99334.53
2017-12-29T17:11:13.466Z,99336.48
2017-12-29T17:13:41.779Z,99333.04
2017-12-29T17:16:09.169Z,99322.05
2017-12-29T17:18:36.558Z,99319.34
2017-12-29T17:21:03.937Z,99319.57
2017-12-29T17:23:31.322Z,99317.84
2017-12-29T17:25:58.706Z,99309.20
2017-12-29T17:28:26.089Z,99309.98
2017-12-29T17:30:53.482Z,99313.45
2017-12-29T17:33:20.866Z,99308.66
2017-12-29T17:35:48.256Z,99315.48
2017-12-29T17:38:15.662Z,99314.77
2017-12-29T17:40:43.130Z,99309.49
2017-12-29T17:43:10.529Z,99305.68
2017-12-29T17:45:37.910Z,99298.88
2017-12-29T17:48:05.298Z,99294.31
2017-12-29T17:50:32.690Z,99292.23
2017-12-29T17:53:00.076Z,99294.19
2017-12-29T17:55:27.462Z,99285.88
2017-12-29T17:57:54.846Z,99281.09
2017-12-29T18:00:22.283Z,99276.16
2017-12-29T18:02:49.654Z,99274.77
2017-12-29T18:05:17.034Z,99262.80
2017-12-29T18:07:44.434Z,99264.28
2017-12-29T18:10:11.857Z,99262.93
2017-12-29T18:12:39.203Z,99270.39
2017-12-29T18:15:06.574Z,99272.89
2017-12-29T18:17:34.078Z,99273.53
2017-12-29T18:20:01.462Z,99269.79
2017-12-29T18:22:28.851Z,99270.27
2017-12-29T18:24:56.234Z,99265.93
2017-12-29T18:27:23.630Z,99265.29
2017-12-29T18:29:51.300Z,99269.45
2017-12-29T18:32:18.695Z,99275.73
2017-12-29T18:34:46.078Z,99270.75
2017-12-29T18:37:13.511Z,99274.03
2017-12-29T18:39:40.890Z,99275.38
2017-12-29T18:42:08.403Z,99274.66
2017-12-29T18:44:35.793Z,99269.45
2017-12-29T18:47:03.185Z,99273.51
2017-12-29T18:49:30.566Z,99261.52
2017-12-29T18:51:57.946Z,99266.30
2017-12-29T18:54:25.322Z,99265.70
2017-12-29T18:56:52.726Z,99270.00
2017-12-29T18:59:20.102Z,99259.72
2017-12-29T19:01:47.495Z,99256.25
2017-12-29T19:04:14.918Z,99256.19
2017-12-29T19:06:42.261Z,99253.96
2017-12-29T19:09:09.635Z,99251.56
2017-12-29T19:11:37.033Z,99259.57
2017-12-29T19:14:04.414Z,99251.87
2017-12-29T19:16:31.798Z,99250.92
2017-12-29T19:18:59.183Z,99251.84
2017-12-29T19:21:26.575Z,99246.59
2017-12-29T19:23:54.983Z,99249.33
2017-12-29T19:26:22.374Z,99244.38
2017-12-29T19:28:49.778Z,99243.77
2017-12-29T19:31:17.161Z,99251.84
2017-12-29T19:33:44.553Z,99242.33
2017-12-29T19:36:11.939Z,99241.94
2017-12-29T19:38:39.329Z,99242.05
2017-12-29T19:41:06.718Z,99241.02
2017-12-29T19:43:34.104Z,99233.38
2017-12-29T19:46:01.479Z,99230.00
2017-12-29T19:48:28.884Z,99226.55
2017-12-29T19:50:56.259Z,99226.73
2017-12-29T19:53:23.651Z,99222.72
2017-12-29T19:55:51.026Z,99215.26
2017-12-29T19:58:18.422Z,99215.98
2017-12-29T20:00:45.917Z,99217.60
2017-12-29T20:03:13.286Z,99226.03
2017-12-29T20:05:40.677Z,99225.52
2017-12-29T20:08:08.070Z,99222.45
2017-12-29T20:10:35.440Z,99227.19
2017-12-29T20:13:02.842Z,99225.56
2017-12-29T20:15:30.232Z,99241.16
2017-12-29T20:17:57.623Z,99222.08
2017-12-29T20:20:25.028Z,99229.45
2017-12-29T20:22:52.524Z,99233.16
2017-12-29T20:25:19.914Z,99222.63
2017-12-29T20:27:47.315Z,99237.59
2017-12-29T20:30:14.768Z,99235.52
2017-12-29T20:32:42.194Z,99231.94
2017-12-29T20:35:09.543Z,99232.20
2017-12-29T20:37:37.014Z,99232.63
2017-12-29T20:40:04.407Z,99239.92
2017-12-29T20:42:31.798Z,99234.41
2017-12-29T20:44:59.196Z,99237.63
2017-12-29T20:47:26.592Z,99234.30
2017-12-29T20:49:53.972Z,99231.06
2017-12-29T20:52:21.378Z,99235.53
2017-12-29T20:54:48.758Z,99231.02
2017-12-29T20:57:16.161Z,99226.88
2017-12-29T20:59:43.537Z,99226.16
2017-12-29T21:02:10.927Z,99225.94
2017-12-29T21:04:38.306Z,99230.09
2017-12-29T21:07:05.695Z,99224.91
2017-12-29T21:09:33.112Z,99233.35
2017-12-29T21:12:00.522Z,99229.95
2017-12-29T21:14:27.949Z,99231.98
2017-12-29T21:16:55.335Z,99223.27
2017-12-29T21:19:22.789Z,99227.53
2017-12-29T21:21:50.210Z,99223.05
2017-12-29T21:24:17.607Z,99221.86
2017-12-29T21:26:45.000Z,99229.56
2017-12-29T21:29:12.391Z,99222.23
2017-12-29T21:31:39.770Z,99221.88
2017-12-29T21:34:07.178Z,99222.38
2017-12-29T21:36:34.671Z,99229.83
2017-12-29T21:39:02.106Z,99236.86
2017-12-29T21:41:29.506Z,99232.84
2017-12-29T21:43:56.884Z,99224.37
2017-12-29T21:46:24.268Z,99222.39
2017-12-29T21:48:51.674Z,99226.09
2017-12-29T21:51:19.094Z,99225.08
2017-12-29T21:53:46.483Z,99227.06
2017-12-29T21:56:13.891Z,99229.52
2017-12-29T21:58:41.293Z,99225.86
2017-12-29T22:01:08.695Z,99228.32
2017-12-29T22:03:36.086Z,99234.28
2017-12-29T22:06:03.489Z,99237.04
2017-12-29T22:08:30.920Z,99235.62
2017-12-29T22:10:58.286Z,99228.35
2017-12-29T22:13:25.678Z,99234.56
2017-12-29T22:15:53.076Z,99233.28
2017-12-29T22:18:20.463Z,99241.23
2017-12-29T22:20:47.839Z,99237.62
2017-12-29T22:23:15.231Z,99248.50
2017-12-29T22:25:42.610Z,99252.64
2017-12-29T22:28:10.003Z,99254.83
2017-12-29T22:30:37.386Z,99242.22
2017-12-29T22:33:04.778Z,99248.30
2017-12-29T22:35:32.171Z,99253.17
2017-12-29T22:37:59.587Z,99250.75
2017-12-29T22:40:26.975Z,99244.85
2017-12-29T22:42:54.368Z,99261.32
2017-12-29T22:45:21.754Z,99271.16
2017-12-29T22:47:49.150Z,99259.22
2017-12-29T22:50:16.570Z,99268.64
2017-12-29T22:52:43.954Z,99265.06
2017-12-29T22:55:11.342Z,99273.18
2017-12-29T22:57:38.734Z,99271.86
2017-12-29T23:00:06.118Z,99275.89
2017-12-29T23:02:33.502Z,99276.42
2017-12-29T23:05:00.903Z,99277.97
2017-12-29T23:07:28.275Z,99268.85
2017-12-29T23:09:55.790Z,99262.64
2017-12-29T23:12:23.174Z,99267.90
2017-12-29T23:14:50.561Z,99266.03
2017-12-29T23:17:17.947Z,99259.73
2017-12-29T23:19:45.338Z,99259.84
2017-12-29T23:22:12.725Z,99267.84
2017-12-29T23:24:40.110Z,99263.14
2017-12-29T23:27:07.483Z,99269.64
2017-12-29T23:29:34.887Z,99281.53
2017-12-29T23:32:02.262Z,99281.43
2017-12-29T23:34:29.651Z,99267.13
2017-12-29T23:36:57.030Z,99267.41
2017-12-29T23:39:24.421Z,99270.91
2017-12-29T23:41:51.803Z,99275.05
2017-12-29T23:44:19.199Z,99276.15
2017-12-29T23:46:46.626Z,99271.27
2017-12-29T23:49:14.015Z,99274.65
2017-12-29T23:51:41.394Z,99280.27
2017-12-29T23:54:08.783Z,99272.81
2017-12-29T23:56:36.167Z,99276.45
2017-12-29T23:59:03.556Z,99278.58
